Time;durP1;ratioP1;P1;durP2;ratioP2;P2;SDS_P1;SDS_P2;PMS_P1;PMS_P2;Temp;Humidity;BMP_temperature;BMP_pressure;BME280_temperature;BME280_humidity;BME280_pressure;Samples;Min_cycle;Max_cycle;Signal;HPM_P1;HPM_P2
2022/05/01 00:05:01;;;;;;;19.95;10.98;;;;;;;3.76;nan;98810.66;10396561;28;20069;-71
2022/05/01 00:10:04;;;;;;;21.73;11.25;;;;;;;3.72;nan;98802.88;10395725;28;20754;-70
2022/05/01 00:15:06;;;;;;;20.63;11.57;;;;;;;3.62;nan;98769.94;10396944;28;20046;-70
2022/05/01 00:20:08;;;;;;;21.80;11.82;;;;;;;3.49;nan;98716.28;10396098;28;20054;-71
2022/05/01 00:25:10;;;;;;;18.10;10.90;;;;;;;3.41;nan;98686.84;10399223;28;21744;-70
2022/05/01 00:30:12;;;;;;;18.15;10.25;;;;;;;3.36;nan;98672.16;10407476;28;20080;-71
2022/05/01 00:40:35;;;;;;;22.43;11.00;;;;;;;3.19;nan;98620.22;10404122;28;20045;-70
2022/05/01 00:45:36;;;;;;;21.13;11.52;;;;;;;3.17;nan;98608.13;10398312;28;20049;-71
2022/05/01 00:50:38;;;;;;;22.83;12.23;;;;;;;3.07;nan;98568.34;10403655;28;20103;-71
2022/05/01 00:55:40;;;;;;;20.77;11.05;;;;;;;3.00;nan;98545.84;10404279;28;20045;-71
2022/05/01 01:00:42;;;;;;;20.42;11.00;;;;;;;3.00;nan;98543.25;10397850;28;20053;-71
2022/05/01 01:05:44;;;;;;;17.55;10.73;;;;;;;2.98;nan;98532.06;10405252;28;20064;-71
2022/05/01 01:10:46;;;;;;;19.83;10.95;;;;;;;2.90;nan;98511.28;10404923;28;20885;-70
2022/05/01 01:15:48;;;;;;;20.63;10.75;;;;;;;2.90;nan;98507.81;10407492;28;20045;-70
2022/05/01 01:20:54;;;;;;;19.45;9.80;;;;;;;2.83;nan;98491.38;10385686;28;20057;-71
2022/05/01 01:25:55;;;;;;;22.70;10.48;;;;;;;2.80;nan;98470.66;10400448;28;20485;-70
2022/05/01 01:36:20;;;;;;;;;;;;;;;2.73;nan;98455.94;10393295;28;20057;-69
2022/05/01 01:41:26;;;;;;;21.13;11.20;;;;;;;2.74;nan;98455.09;10403426;28;20285;-71
2022/05/01 01:46:31;;;;;;;20.67;10.95;;;;;;;2.72;nan;98446.44;10402325;28;20045;-72
2022/05/01 01:51:33;;;;;;;21.27;11.02;;;;;;;2.76;nan;98468.91;10400322;28;20394;-70
2022/05/01 01:56:36;;;;;;;20.60;11.30;;;;;;;2.77;nan;98481.84;10398934;28;20057;-71
2022/05/01 02:01:42;;;;;;;23.08;11.95;;;;;;;2.80;nan;98488.75;10396911;28;20671;-72
2022/05/01 02:06:44;;;;;;;18.15;10.18;;;;;;;2.78;nan;98480.13;10391792;28;20073;-71
2022/05/01 02:11:46;;;;;;;21.60;11.23;;;;;;;2.80;nan;98489.63;10392231;28;20045;-72
2022/05/01 02:16:48;;;;;;;22.13;12.00;;;;;;;2.86;nan;98512.09;10392105;28;20041;-72
2022/05/01 02:21:51;;;;;;;21.67;11.75;;;;;;;2.99;nan;98572.56;10396840;28;20087;-72
2022/05/01 02:26:53;;;;;;;23.42;13.10;;;;;;;3.09;nan;98617.50;10399581;28;20045;-71
2022/05/01 02:31:55;;;;;;;25.13;11.70;;;;;;;3.19;nan;98650.38;10396030;28;20068;-71
2022/05/01 02:36:57;;;;;;;19.45;10.98;;;;;;;3.28;nan;98686.72;10397320;28;20040;-71
2022/05/01 02:41:59;;;;;;;19.95;10.90;;;;;;;3.42;nan;98740.34;10396285;28;20107;-71
2022/05/01 02:47:00;;;;;;;24.27;12.50;;;;;;;3.53;nan;98785.38;10396440;28;20087;-71
2022/05/01 02:52:02;;;;;;;22.88;12.20;;;;;;;3.64;nan;98832.09;10395621;28;20109;-72
2022/05/01 02:57:04;;;;;;;20.48;11.90;;;;;;;3.72;nan;98867.59;10397433;28;20076;-71
2022/05/01 03:02:06;;;;;;;21.50;12.07;;;;;;;3.76;nan;98885.75;10395356;28;20456;-71
2022/05/01 03:07:09;;;;;;;21.80;12.02;;;;;;;3.80;nan;98900.44;10395908;28;20041;-71
2022/05/01 03:12:10;;;;;;;20.35;11.50;;;;;;;3.87;nan;98935.94;10395966;28;20649;-71
2022/05/01 03:17:12;;;;;;;21.05;11.38;;;;;;;3.93;nan;98954.16;10402018;28;20057;-71
2022/05/01 03:22:13;;;;;;;21.02;11.00;;;;;;;3.89;nan;98942.91;10394214;28;20049;-71
2022/05/01 03:27:15;;;;;;;20.00;11.85;;;;;;;3.82;nan;98922.06;10396019;28;20061;-71
2022/05/01 03:32:17;;;;;;;20.60;11.07;;;;;;;3.82;nan;98922.06;10394965;28;20077;-70
2022/05/01 03:37:18;;;;;;;21.88;11.38;;;;;;;3.85;nan;98929.88;10395858;28;20266;-71
2022/05/01 03:42:20;;;;;;;20.23;11.18;;;;;;;3.87;nan;98936.84;10395371;28;20080;-71
2022/05/01 03:47:22;;;;;;;21.35;11.57;;;;;;;3.96;nan;98977.50;10395583;28;20042;-71
2022/05/01 03:52:23;;;;;;;18.83;11.48;;;;;;;4.03;nan;99010.41;10394864;28;20046;-71
2022/05/01 03:57:25;;;;;;;20.45;11.65;;;;;;;4.04;nan;99017.34;10394962;28;20085;-71
2022/05/01 04:02:27;;;;;;;18.38;11.10;;;;;;;4.10;nan;99036.41;10395655;28;20053;-71
2022/05/01 04:07:29;;;;;;;22.92;12.02;;;;;;;4.20;nan;99079.75;10395913;28;20598;-71
2022/05/01 04:12:38;;;;;;;21.23;11.75;;;;;;;4.24;nan;99103.13;10402472;28;20077;-70
2022/05/01 04:17:40;;;;;;;23.90;12.80;;;;;;;4.21;nan;99097.06;10396509;28;20088;-70
2022/05/01 04:22:44;;;;;;;19.10;10.77;;;;;;;4.17;nan;99077.13;10403072;28;20064;-71
2022/05/01 04:27:48;;;;;;;23.52;12.15;;;;;;;4.20;nan;99098.78;10403376;28;20072;-71
2022/05/01 04:32:59;;;;;;;21.23;12.57;;;;;;;4.10;nan;99055.44;10406963;28;20045;-71
2022/05/01 04:38:04;;;;;;;25.02;12.68;;;;;;;4.09;nan;99047.66;10403057;28;20666;-71
2022/05/01 04:43:11;;;;;;;22.02;12.35;;;;;;;4.10;nan;99055.44;10402284;28;20567;-71
2022/05/01 04:48:13;;;;;;;20.13;12.40;;;;;;;4.20;nan;99096.19;10402222;28;20132;-70
2022/05/01 04:53:18;;;;;;;25.75;12.88;;;;;;;4.28;nan;99132.56;10395012;28;20115;-69
2022/05/01 04:58:20;;;;;;;23.10;13.02;;;;;;;4.40;nan;99178.56;10400186;28;20041;-70
2022/05/01 05:03:22;;;;;;;21.38;12.85;;;;;;;4.47;nan;99214.06;10399927;28;20751;-70
2022/05/01 05:13:44;;;;;;;25.33;13.35;;;;;;;4.61;nan;99268.75;10399034;28;20044;-70
2022/05/01 05:18:46;;;;;;;22.15;13.35;;;;;;;4.67;nan;99293.88;10400399;28;20071;-70
2022/05/01 05:23:47;;;;;;;22.05;12.07;;;;;;;4.78;nan;99347.69;10400295;28;20515;-71
2022/05/01 05:28:49;;;;;;;21.38;12.77;;;;;;;4.95;nan;99411.94;10401650;28;20050;-70
2022/05/01 05:33:51;;;;;;;21.50;12.40;;;;;;;5.10;nan;99471.94;10401770;28;20255;-70
2022/05/01 05:38:53;;;;;;;19.52;11.70;;;;;;;5.19;nan;99510.13;10400032;28;20051;-70
2022/05/01 05:43:54;;;;;;;21.60;11.90;;;;;;;5.26;nan;99537.94;10399595;28;20072;-70
2022/05/01 05:49:01;;;;;;;20.85;12.10;;;;;;;5.41;nan;99599.66;10399195;28;20088;-70
2022/05/01 05:54:03;;;;;;;22.30;12.13;;;;;;;5.57;nan;99672.63;10398456;28;20045;-70
2022/05/01 05:59:05;;;;;;;20.63;10.95;;;;;;;5.75;nan;99737.94;10395660;28;20091;-70
2022/05/01 06:04:06;;;;;;;19.85;11.05;;;;;;;5.91;nan;99811.00;10398589;28;20659;-70
2022/05/01 06:09:09;;;;;;;18.77;10.45;;;;;;;6.06;nan;99868.50;10398068;28;20068;-70
2022/05/01 06:14:10;;;;;;;20.77;9.90;;;;;;;6.25;nan;99946.88;10398162;28;20073;-70
2022/05/01 06:19:12;;;;;;;14.73;8.80;;;;;;;6.50;nan;100044.47;10398217;28;20528;-69
2022/05/01 06:24:13;;;;;;;15.80;9.00;;;;;;;6.70;nan;100130.78;10397060;28;20671;-70
2022/05/01 06:29:15;;;;;;;14.43;8.30;;;;;;;6.85;nan;100200.50;10400354;28;20080;-70
2022/05/01 06:34:17;;;;;;;20.15;8.65;;;;;;;7.06;nan;100284.28;10396831;28;20113;-70
2022/05/01 06:39:18;;;;;;;16.80;8.23;;;;;;;7.25;nan;100363.72;10396820;28;20053;-70
2022/05/01 06:44:20;;;;;;;16.73;8.32;;;;;;;7.37;nan;100410.03;10396442;28;20685;-70
2022/05/01 06:49:22;;;;;;;10.82;6.72;;;;;;;7.59;nan;100505.19;10397277;28;20056;-71
2022/05/01 06:54:24;;;;;;;16.02;7.53;;;;;;;7.70;nan;100548.88;10397034;28;20497;-71
2022/05/01 06:59:25;;;;;;;12.65;6.45;;;;;;;7.90;nan;100625.00;10401249;28;20044;-71
2022/05/01 07:04:27;;;;;;;18.95;7.65;;;;;;;8.19;nan;100745.69;10396067;28;20081;-70
2022/05/01 07:09:28;;;;;;;15.35;6.65;;;;;;;8.46;nan;100856.88;10396833;28;20037;-71
2022/05/01 07:14:30;;;;;;;12.15;6.40;;;;;;;8.74;nan;100972.50;10395647;28;20130;-71
2022/05/01 07:19:32;;;;;;;16.58;6.97;;;;;;;8.93;nan;101052.19;10385074;28;20084;-69
2022/05/01 07:24:33;;;;;;;10.63;5.55;;;;;;;9.14;nan;101145.97;10395967;28;20171;-70
2022/05/01 07:29:35;;;;;;;9.60;5.00;;;;;;;9.30;nan;101216.13;10395684;28;20053;-71
2022/05/01 07:34:38;;;;;;;11.00;5.28;;;;;;;9.30;nan;101216.13;10398241;28;20071;-70
2022/05/01 07:39:40;;;;;;;10.07;5.25;;;;;;;9.26;nan;101209.00;10403615;28;20758;-70
2022/05/01 07:44:41;;;;;;;12.57;5.57;;;;;;;9.46;nan;101281.94;10403990;28;20575;-70
2022/05/01 07:49:43;;;;;;;11.38;5.20;;;;;;;9.84;nan;101444.31;10403830;28;20044;-70
2022/05/01 07:54:45;;;;;;;9.63;4.00;;;;;;;10.07;nan;101542.72;10397462;28;20494;-70
2022/05/01 07:59:47;;;;;;;13.15;5.63;;;;;;;10.35;nan;101653.53;10407531;28;20049;-69
2022/05/01 08:04:49;;;;;;;8.55;4.35;;;;;;;10.79;nan;101833.88;10403680;28;20516;-70
2022/05/01 08:09:50;;;;;;;9.73;3.60;;;;;;;10.96;nan;101913.97;10403262;28;20111;-70
2022/05/01 08:14:52;;;;;;;12.95;5.03;;;;;;;11.31;nan;102057.56;10402667;28;20068;-69
2022/05/01 08:25:18;;;;;;;9.30;3.83;;;;;;;11.60;nan;102180.94;10400833;28;21859;-70
2022/05/01 08:30:20;;;;;;;9.80;3.78;;;;;;;12.00;nan;102348.63;10402886;28;20482;-69
2022/05/01 08:35:21;;;;;;;14.57;7.43;;;;;;;12.39;nan;102510.22;10403222;28;20485;-69
2022/05/01 08:40:23;;;;;;;19.65;8.43;;;;;;;12.49;nan;102549.16;10401590;28;20057;-69
2022/05/01 08:45:26;;;;;;;9.77;4.13;;;;;;;12.85;nan;102711.69;10402901;28;20548;-70
2022/05/01 08:50:28;;;;;;;8.90;3.95;;;;;;;13.06;nan;102792.22;10401203;28;20046;-70
2022/05/01 08:55:30;;;;;;;7.50;3.50;;;;;;;13.36;nan;102921.50;10403391;28;20084;-70
2022/05/01 09:00:32;;;;;;;6.75;3.35;;;;;;;14.32;nan;103325.63;10401445;28;20056;-71
2022/05/01 09:05:33;;;;;;;7.38;3.72;;;;;;;-147.53;100.00;57128.34;10402290;28;20060;-70
2022/05/01 09:10:36;;;;;;;7.15;3.20;;;;;;;-147.53;100.00;57128.34;10401186;28;20047;-69
2022/05/01 09:15:41;;;;;;;5.95;2.92;;;;;;;14.32;nan;103325.63;10401491;28;20137;-70
2022/05/01 09:21:04;;;;;;;10.15;4.25;;;;;;;14.04;nan;103211.19;10400587;28;20053;-70
2022/05/01 09:26:10;;;;;;;5.78;3.20;;;;;;;14.89;nan;103565.41;10401597;28;20033;-70
2022/05/01 09:31:12;;;;;;;7.57;3.67;;;;;;;14.60;nan;103441.06;10399882;28;20057;-70
2022/05/01 09:36:35;;;;;;;8.32;3.33;;;;;;;14.96;nan;103587.69;10400696;28;20513;-70
2022/05/01 09:41:42;;;;;;;7.78;3.28;;;;;;;14.17;nan;103252.09;10399503;28;20046;-70
2022/05/01 09:46:44;;;;;;;9.55;3.30;;;;;;;14.17;nan;103252.09;10400041;28;20447;-69
2022/05/01 09:51:54;;;;;;;8.25;3.00;;;;;;;13.65;nan;103018.25;10399220;28;20619;-71
2022/05/01 09:56:59;;;;;;;8.02;3.40;;;;;;;13.30;nan;102871.22;10399603;28;20623;-69
2022/05/01 10:02:06;;;;;;;8.43;2.97;;;;;;;12.98;nan;102734.06;10401963;28;20095;-70
2022/05/01 10:07:08;;;;;;;5.93;2.75;;;;;;;12.87;nan;102690.72;10399961;28;20099;-69
2022/05/01 10:12:12;;;;;;;6.05;3.15;;;;;;;12.97;nan;102732.31;10399087;28;20056;-70
2022/05/01 10:17:13;;;;;;;6.13;2.83;;;;;;;12.76;nan;102640.38;10398879;28;20080;-70
2022/05/01 10:22:17;;;;;;;7.53;3.25;;;;;;;12.47;nan;102514.00;10399045;28;20530;-71
2022/05/01 10:27:40;;;;;;;10.15;3.42;;;;;;;12.40;nan;102491.00;10398452;28;20068;-69
2022/05/01 10:33:10;;;;;;;8.68;3.00;;;;;;;12.39;nan;102473.44;10397704;28;20111;-70
2022/05/01 10:38:23;;;;;;;9.15;3.00;;;;;;;12.47;nan;102508.75;10394880;28;20136;-70
2022/05/01 10:43:36;;;;;;;7.85;5.00;;;;;;;12.57;nan;102545.91;10396295;28;20063;-70
2022/05/01 10:48:39;;;;;;;7.38;2.83;;;;;;;12.50;nan;102510.63;10396441;28;20053;-70
2022/05/01 10:53:42;;;;;;;7.38;3.10;;;;;;;12.63;nan;102564.53;10396852;28;20048;-70
2022/05/01 10:58:44;;;;;;;6.32;2.70;;;;;;;12.71;nan;102592.84;10395630;28;20803;-69
2022/05/01 11:03:51;;;;;;;8.00;2.90;;;;;;;12.65;nan;102576.88;10374474;28;20050;-70
2022/05/01 11:08:56;;;;;;;5.97;3.00;;;;;;;12.71;nan;102592.84;10382893;28;20069;-70
2022/05/01 11:14:00;;;;;;;5.97;2.85;;;;;;;12.98;nan;102701.63;10380023;28;20049;-70
2022/05/01 11:19:02;;;;;;;8.75;3.08;;;;;;;13.16;nan;102768.06;10376713;28;20410;-70
2022/05/01 11:24:05;;;;;;;8.57;3.00;;;;;;;13.49;nan;102907.06;10378669;28;20049;-70
2022/05/01 11:29:14;;;;;;;6.50;2.83;;;;;;;13.80;nan;103034.63;10377535;28;20065;-69
2022/05/01 11:34:15;;;;;;;6.95;3.42;;;;;;;13.97;nan;103093.25;10378083;28;20421;-71
2022/05/01 11:39:17;;;;;;;6.07;3.15;;;;;;;14.31;nan;103234.25;10382903;28;20045;-69
2022/05/01 11:44:20;;;;;;;6.35;2.80;;;;;;;14.17;nan;103172.16;10382102;28;20046;-69
2022/05/01 11:49:22;;;;;;;8.85;3.45;;;;;;;13.85;nan;103038.34;10382684;28;20046;-70
2022/05/01 11:54:29;;;;;;;6.30;2.97;;;;;;;14.16;nan;103168.66;10375395;28;20045;-70
2022/05/01 12:04:57;;;;;;;7.97;3.17;;;;;;;14.70;nan;103387.03;10382501;28;20045;-70
2022/05/01 12:09:59;;;;;;;7.35;2.90;;;;;;;14.80;nan;103419.94;10378385;28;20053;-71
2022/05/01 12:15:04;;;;;;;8.18;3.22;;;;;;;14.76;nan;103408.38;10381930;28;20176;-70
2022/05/01 12:20:07;;;;;;;9.75;3.60;;;;;;;14.82;nan;103426.19;10380411;28;20049;-70
2022/05/01 12:25:11;;;;;;;7.63;3.30;;;;;;;14.53;nan;103301.91;10388564;28;20553;-70
2022/05/01 12:30:14;;;;;;;7.97;3.50;;;;;;;14.70;nan;103363.28;10387462;28;20248;-71
2022/05/01 12:35:16;;;;;;;14.32;3.97;;;;;;;14.74;nan;103377.47;10385388;28;21475;-70
2022/05/01 12:43:50;;;;;;;7.38;3.22;;;;;;;14.76;nan;103378.47;10389837;28;20072;-70
2022/05/01 12:45:50;;;;;;;6.15;2.97;;;;;;;14.63;nan;103326.94;10390748;28;20055;-71
2022/05/01 12:50:52;;;;;;;6.00;2.92;;;;;;;14.55;nan;103279.16;10392663;28;20051;-71
2022/05/01 12:55:55;;;;;;;8.30;3.38;;;;;;;14.37;nan;103197.59;10391028;28;20050;-70
2022/05/01 13:00:58;;;;;;;6.85;2.83;;;;;;;14.24;nan;103148.75;10391840;28;20106;-71
2022/05/01 13:06:11;;;;;;;6.97;2.97;;;;;;;14.48;nan;103237.56;10390296;28;20056;-69
2022/05/01 13:11:13;;;;;;;6.22;3.08;;;;;;;14.43;nan;103218.91;10378889;28;20050;-70
2022/05/01 13:16:17;;;;;;;7.32;3.30;;;;;;;14.32;nan;103168.41;10386638;28;20041;-71
2022/05/01 13:21:20;;;;;;;9.10;3.15;;;;;;;14.73;nan;103333.50;10379427;28;20041;-70
2022/05/01 13:26:22;;;;;;;7.38;3.00;;;;;;;15.11;nan;103487.19;10382933;28;20069;-71
2022/05/01 13:31:24;;;;;;;6.90;3.17;;;;;;;15.51;nan;103661.34;10384600;28;20042;-70
2022/05/01 13:36:26;;;;;;;8.55;3.05;;;;;;;15.51;nan;103661.34;10383924;28;20062;-70
2022/05/01 13:46:48;;;;;;;5.82;2.88;;;;;;;15.47;nan;103622.41;10381924;28;20068;-70
2022/05/01 13:51:50;;;;;;;7.35;2.78;;;;;;;15.00;nan;103418.13;10385377;28;20092;-71
2022/05/01 13:56:51;;;;;;;7.47;2.95;;;;;;;14.90;nan;103376.38;10390692;28;20040;-71
2022/05/01 14:01:54;;;;;;;5.72;2.78;;;;;;;14.99;nan;103406.66;10384602;28;20092;-70
2022/05/01 14:06:56;;;;;;;5.40;2.67;;;;;;;14.69;nan;103273.56;10382231;28;20049;-71
2022/05/01 14:11:58;;;;;;;6.50;2.70;;;;;;;14.38;nan;103145.75;10384024;28;20045;-70
2022/05/01 14:16:59;;;;;;;8.43;3.08;;;;;;;14.17;nan;103051.84;10383908;28;20083;-70
2022/05/01 14:22:01;;;;;;;5.85;2.63;;;;;;;14.15;nan;103040.38;10384403;28;20049;-70
2022/05/01 14:27:20;;;;;;;6.97;2.65;;;;;;;14.00;nan;102973.94;10379655;28;20050;-70
2022/05/01 14:32:27;;;;;;;4.50;2.38;;;;;;;13.89;nan;102932.28;10384419;28;20060;-71
2022/05/01 14:37:42;;;;;;;11.15;3.38;;;;;;;13.93;nan;102942.09;10386416;28;20038;-71
2022/05/01 14:42:47;;;;;;;5.50;2.85;;;;;;;13.90;nan;102927.91;10376974;28;20063;-71
2022/05/01 14:47:54;;;;;;;6.57;2.80;;;;;;;14.00;nan;102960.78;10380578;28;20401;-71
2022/05/01 14:52:56;;;;;;;7.13;2.75;;;;;;;13.96;nan;102942.22;10400143;28;20049;-71
2022/05/01 14:57:57;;;;;;;8.07;3.35;;;;;;;14.10;nan;103002.44;10389486;28;20354;-71
2022/05/01 15:08:30;;;;;;;7.75;3.10;;;;;;;14.39;nan;103105.41;10398234;28;20575;-71
2022/05/01 15:13:31;;;;;;;8.57;3.22;;;;;;;14.35;nan;103095.56;10396880;28;20056;-71
2022/05/01 15:18:46;;;;;;;10.10;3.22;;;;;;;14.25;nan;103049.53;10397288;28;20421;-71
2022/05/01 15:23:51;;;;;;;7.20;3.45;;;;;;;14.01;nan;102947.66;10396857;28;20084;-70
2022/05/01 15:28:53;;;;;;;5.82;2.60;;;;;;;13.92;nan;102905.19;10398689;28;20051;-70
2022/05/01 15:33:57;;;;;;;6.65;3.05;;;;;;;14.02;nan;102940.63;10387753;28;20056;-70
2022/05/01 15:39:06;;;;;;;5.30;2.45;;;;;;;13.86;nan;102887.41;10387173;28;20422;-70
2022/05/01 15:44:11;;;;;;;8.70;2.90;;;;;;;13.54;nan;102746.69;10396998;28;20060;-70
2022/05/01 15:54:37;;;;;;;8.38;3.45;;;;;;;13.81;nan;102856.47;10397410;28;20049;-70
2022/05/01 15:59:40;;;;;;;9.10;3.00;;;;;;;13.88;nan;102874.28;10404780;28;20049;-71
2022/05/01 16:04:42;;;;;;;6.85;2.80;;;;;;;13.65;nan;102770.78;10403915;28;20098;-69
2022/05/01 16:09:54;;;;;;;5.72;2.80;;;;;;;13.48;nan;102705.28;10410563;28;20627;-69
2022/05/01 16:15:04;;;;;;;8.75;3.38;;;;;;;13.49;nan;102712.31;10404503;28;20061;-70
2022/05/01 16:20:18;;;;;;;6.85;2.90;;;;;;;13.42;nan;102684.91;10408499;28;20464;-69
2022/05/01 16:25:22;;;;;;;8.80;3.10;;;;;;;13.33;nan;102638.91;10400838;28;20053;-70
2022/05/01 16:30:26;;;;;;;7.18;3.20;;;;;;;13.41;nan;102661.16;10403815;28;20053;-71
2022/05/01 16:35:38;;;;;;;7.50;2.55;;;;;;;13.33;nan;102636.25;10420190;28;20076;-70
2022/05/01 16:40:47;;;;;;;6.75;2.35;;;;;;;13.18;nan;102573.47;10404308;28;20045;-70
2022/05/01 16:45:54;;;;;;;7.75;2.65;;;;;;;13.04;nan;102512.53;10404026;28;20083;-70
2022/05/01 16:50:59;;;;;;;5.18;2.25;;;;;;;12.87;nan;102440.97;10404879;28;20123;-70
2022/05/01 16:56:02;;;;;;;4.70;2.20;;;;;;;12.76;nan;102395.91;10397305;28;20048;-71
2022/05/01 17:01:13;;;;;;;5.65;2.25;;;;;;;12.60;nan;102325.28;10407223;28;20309;-71
2022/05/01 17:06:31;;;;;;;10.15;3.15;;;;;;;12.41;nan;102252.84;10401624;28;20049;-71
2022/05/01 17:11:32;;;;;;;5.45;2.33;;;;;;;12.27;nan;102195.50;10403554;28;20055;-69
2022/05/01 17:17:12;;;;;;;10.13;3.50;;;;;;;12.15;nan;102143.47;10396493;28;20076;-68
2022/05/01 17:22:35;;;;;;;10.45;5.05;;;;;;;12.01;nan;102095.78;10399562;28;20525;-71
2022/05/01 17:27:44;;;;;;;9.68;3.92;;;;;;;11.89;nan;102029.72;10391821;28;20049;-69
2022/05/01 17:32:57;;;;;;;7.20;3.15;;;;;;;11.83;nan;102012.03;10403599;28;20432;-69
2022/05/01 17:38:00;;;;;;;5.70;2.45;;;;;;;11.77;nan;101990.88;10401484;28;20060;-71
2022/05/01 17:43:04;;;;;;;8.18;2.80;;;;;;;11.67;nan;101946.81;10401117;28;20047;-71
2022/05/01 17:48:06;;;;;;;6.68;2.78;;;;;;;11.58;nan;101912.44;10401878;28;20394;-71
2022/05/01 17:53:09;;;;;;;9.38;2.72;;;;;;;11.53;nan;101887.78;10401172;28;20055;-71
2022/05/01 17:58:11;;;;;;;6.05;2.40;;;;;;;11.42;nan;101848.97;10400594;28;20049;-71
2022/05/01 18:03:26;;;;;;;5.88;2.38;;;;;;;11.36;nan;101822.56;10400283;28;20045;-70
2022/05/01 18:14:59;;;;;;;7.15;3.22;;;;;;;11.21;nan;101764.44;10399893;28;20054;-71
2022/05/01 18:20:08;;;;;;;5.03;2.28;;;;;;;11.08;nan;101714.28;10398587;28;20050;-71
2022/05/01 18:25:13;;;;;;;6.85;2.53;;;;;;;10.98;nan;101680.75;10399256;28;20385;-71
2022/05/01 18:30:21;;;;;;;6.55;3.00;;;;;;;10.99;nan;101672.06;10399228;28;21652;-71
2022/05/01 18:35:24;;;;;;;11.82;4.03;;;;;;;10.92;nan;101651.75;10399868;28;20048;-71
2022/05/01 18:40:28;;;;;;;8.43;3.15;;;;;;;10.80;nan;101599.88;10392791;28;20053;-71
2022/05/01 18:45:31;;;;;;;10.10;3.17;;;;;;;10.76;nan;101580.59;10399506;28;20048;-72
2022/05/01 18:50:33;;;;;;;5.55;2.72;;;;;;;10.69;nan;101562.00;10399575;28;20789;-71
2022/05/01 18:55:35;;;;;;;8.70;2.70;;;;;;;10.65;nan;101539.22;10397878;28;20516;-72
2022/05/01 19:00:38;;;;;;;6.38;3.15;;;;;;;10.52;nan;101493.44;10398316;28;20087;-71
2022/05/01 19:06:25;;;;;;;7.07;3.22;;;;;;;10.44;nan;101459.19;10399283;28;20053;-71
2022/05/01 19:11:43;;;;;;;6.35;2.92;;;;;;;10.24;nan;101380.94;10398110;28;20065;-72
2022/05/01 19:16:47;;;;;;;8.00;3.10;;;;;;;10.15;nan;101337.91;10399219;28;20042;-70
2022/05/01 19:22:15;;;;;;;6.57;3.25;;;;;;;10.16;nan;101356.25;10391212;28;20037;-71
2022/05/01 19:27:28;;;;;;;8.32;3.35;;;;;;;10.04;nan;101301.91;10398399;28;20436;-71
2022/05/01 19:33:07;;;;;;;7.50;3.20;;;;;;;9.97;nan;101281.63;10396482;28;20081;-70
2022/05/01 19:38:12;;;;;;;6.53;2.80;;;;;;;9.94;nan;101260.63;10393807;28;20049;-72
2022/05/01 19:43:25;;;;;;;6.05;2.53;;;;;;;9.92;nan;101251.81;10393915;28;20527;-71
2022/05/01 19:53:52;;;;;;;7.75;2.95;;;;;;;9.83;nan;101228.94;10388858;28;20096;-70
2022/05/01 19:59:02;;;;;;;8.45;3.03;;;;;;;9.82;nan;101216.69;10401526;28;20042;-71
2022/05/01 20:04:04;;;;;;;9.75;2.45;;;;;;;9.67;nan;101167.50;10396448;28;20047;-71
2022/05/01 20:09:08;;;;;;;6.47;2.80;;;;;;;9.47;nan;101082.41;10393147;28;20518;-71
2022/05/01 20:14:10;;;;;;;7.72;3.17;;;;;;;9.35;nan;101034.22;10392036;28;20108;-71
2022/05/01 20:19:32;;;;;;;9.85;3.22;;;;;;;9.25;nan;100999.94;10398929;28;20517;-71
2022/05/01 20:25:11;;;;;;;6.85;3.30;;;;;;;9.14;nan;100960.47;10391468;28;20053;-73
2022/05/01 20:30:18;;;;;;;9.48;3.70;;;;;;;9.04;nan;100914.97;10393939;28;20114;-72
2022/05/01 20:35:25;;;;;;;8.73;3.65;;;;;;;8.86;nan;100850.09;10390143;28;20042;-73
2022/05/01 20:40:29;;;;;;;11.32;3.65;;;;;;;8.75;nan;100796.69;10396271;28;20064;-72
2022/05/01 20:45:53;;;;;;;19.88;8.52;;;;;;;8.71;nan;100789.63;10383123;28;20631;-69
2022/05/01 20:51:01;;;;;;;14.02;4.13;;;;;;;8.56;nan;100733.63;10401864;28;20045;-68
2022/05/01 20:56:04;;;;;;;7.22;3.38;;;;;;;8.40;nan;100668.81;10403120;28;20052;-69
2022/05/01 21:01:06;;;;;;;9.95;3.40;;;;;;;8.22;nan;100602.31;10401835;28;20119;-70
2022/05/01 21:06:12;;;;;;;9.38;2.97;;;;;;;8.10;nan;100553.34;10402100;28;20038;-68
2022/05/01 21:11:15;;;;;;;5.97;2.70;;;;;;;8.01;nan;100516.63;10389432;28;20409;-69
2022/05/01 21:16:21;;;;;;;6.65;2.75;;;;;;;7.90;nan;100477.25;10395911;28;20505;-68
2022/05/01 21:21:24;;;;;;;8.15;3.13;;;;;;;7.79;nan;100443.13;10393813;28;20765;-68
2022/05/01 21:26:25;;;;;;;7.40;2.90;;;;;;;7.70;nan;100403.84;10399246;28;20053;-69
2022/05/01 21:36:47;;;;;;;6.50;3.00;;;;;;;7.40;nan;100289.38;10389858;28;20041;-69
2022/05/01 21:41:49;;;;;;;6.95;3.13;;;;;;;7.24;nan;100229.13;10383688;28;20065;-68
2022/05/01 21:46:50;;;;;;;10.20;3.28;;;;;;;7.14;nan;100185.50;10374588;28;20665;-69
2022/05/01 21:51:52;;;;;;;6.10;3.10;;;;;;;6.94;nan;100113.94;10399356;28;20422;-69
2022/05/01 21:56:54;;;;;;;7.45;3.10;;;;;;;6.78;nan;100056.34;10391482;28;20068;-69
2022/05/01 22:01:56;;;;;;;8.43;3.45;;;;;;;6.68;nan;100012.78;10402237;28;20413;-69
2022/05/01 22:06:58;;;;;;;8.07;3.30;;;;;;;6.57;nan;99967.47;10385138;28;20045;-68
2022/05/01 22:12:00;;;;;;;7.95;3.40;;;;;;;6.43;nan;99921.25;10413657;28;20087;-69
2022/05/01 22:17:11;;;;;;;8.80;3.72;;;;;;;6.29;nan;99863.78;10398522;28;20066;-69
2022/05/01 22:22:14;;;;;;;9.10;3.95;;;;;;;6.14;nan;99812.38;10397561;28;20113;-68
2022/05/01 22:27:16;;;;;;;8.70;3.28;;;;;;;6.06;nan;99780.13;10397187;28;20056;-69
2022/05/01 22:32:17;;;;;;;7.47;3.60;;;;;;;5.99;nan;99754.88;10396322;28;20061;-69
2022/05/01 22:37:31;;;;;;;15.40;4.30;;;;;;;5.94;nan;99733.97;10397566;28;20463;-68
2022/05/01 22:42:32;;;;;;;7.28;3.85;;;;;;;5.84;nan;99696.56;10397306;28;20053;-69
2022/05/01 22:47:35;;;;;;;8.95;3.63;;;;;;;5.73;nan;99653.91;10390179;28;20066;-69
2022/05/01 22:52:37;;;;;;;10.80;3.90;;;;;;;5.62;nan;99606.09;10404720;28;20053;-69
2022/05/01 22:57:40;;;;;;;6.68;3.83;;;;;;;5.49;nan;99563.44;10395952;28;20413;-69
2022/05/01 23:02:43;;;;;;;8.48;3.72;;;;;;;5.44;nan;99545.19;10395950;28;20802;-69
2022/05/01 23:07:45;;;;;;;11.55;3.97;;;;;;;5.49;nan;99566.94;10396417;28;20048;-69
2022/05/01 23:12:52;;;;;;;8.68;4.95;;;;;;;5.58;nan;99597.34;10407946;28;20088;-68
2022/05/01 23:17:55;;;;;;;9.73;4.68;;;;;;;5.63;nan;99623.41;10396570;28;20049;-69
2022/05/01 23:22:57;;;;;;;9.25;5.15;;;;;;;5.71;nan;99652.16;10395595;28;20072;-68
2022/05/01 23:27:59;;;;;;;10.18;4.50;;;;;;;5.72;nan;99659.97;10395478;28;20045;-68
2022/05/01 23:33:00;;;;;;;11.23;4.60;;;;;;;5.71;nan;99660.81;10395283;28;20060;-68
2022/05/01 23:38:03;;;;;;;8.65;4.57;;;;;;;5.79;nan;99695.56;10395415;28;20045;-69
2022/05/01 23:43:08;;;;;;;9.15;4.35;;;;;;;5.86;nan;99713.91;10389273;28;20044;-69
2022/05/01 23:48:10;;;;;;;13.50;4.68;;;;;;;5.90;nan;99733.88;10395268;28;20057;-67
2022/05/01 23:53:12;;;;;;;10.07;5.00;;;;;;;5.95;nan;99761.72;10394982;28;20605;-68
2022/05/01 23:58:14;;;;;;;9.88;4.50;;;;;;;6.04;nan;99792.25;10395799;28;20042;-68
